Terminal Aerodrome Forecast
Issued by NWS

Home | Current Version | Previous Version | Text Only | Print | Product List | Glossary On
Versions: 1 2 3 4 5 6 7 8 9 10 11 12 13 14 15 16 17 18 19 20 21 22 23 24
000
FTUS43 KDLH 010858 AAB
TAFHIB
TAF AMD
KHIB 010858Z 0109/0206 00000KT 1SM BR OVC008
      TEMPO 0109/0112 1/4SM FG OVC002
     FM011600 23008KT P6SM FEW050
     FM020000 19003KT P6SM SCT120=

USA.gov is the U.S. government's official web portal to all federal, state and local government web resources and services.